X  Close Metar Aviation Weather Data     YMML Melbourne International Airport
Temperature
9°C Temperature
9°C Dewpoint
100% Humidity



Wind
7 MPH
11 KM/H
3 M/S
6 KTS



200°
SSW
Current Conditions

Light Drizzle Light Drizzle
Pressure 1017.92 (hPa) - 30.06 (inHg)
Visibility 3.1 (mile) - 5 (km)
Airport
Airport-code YMML

Location: Melbourne International Airport
Distance: 18 (mi)

Metar:
YMML 160930Z 20006KT 5000 -DZ BKN015 09/09 Q1018 RF00/0/001/0

Time: 16-08-2022 19:30 AEST